createdAt,value
2019-01-12T00:00:03.317Z,5.3
2019-01-12T00:05:04.911Z,5.3
2019-01-12T00:10:04.975Z,5.3
2019-01-12T00:15:17.579Z,5.3
2019-01-12T00:25:15.376Z,5.3
2019-01-12T00:30:32.791Z,5.3
2019-01-12T00:35:05.343Z,5.3
2019-01-12T00:40:02.791Z,5.3
2019-01-12T00:45:03.042Z,5.3
2019-01-12T00:50:08.301Z,5.2
2019-01-12T00:55:05.672Z,5.2
2019-01-12T01:00:07.831Z,5.2
2019-01-12T01:05:05.319Z,5.2
2019-01-12T01:10:05.408Z,5.1
2019-01-12T01:15:20.583Z,5.1
2019-01-12T01:20:22.977Z,5.1
2019-01-12T01:25:02.763Z,5.1
2019-01-12T01:30:23.066Z,5
2019-01-12T01:35:02.819Z,5
2019-01-12T01:40:03.316Z,5
2019-01-12T01:45:05.836Z,4.9
2019-01-12T01:50:05.350Z,4.9
2019-01-12T01:55:07.843Z,4.9
2019-01-12T02:00:02.867Z,4.9
2019-01-12T02:05:33.237Z,4.8
2019-01-12T02:10:17.856Z,4.8
2019-01-12T02:15:12.919Z,4.8
2019-01-12T02:20:03.027Z,4.8
2019-01-12T02:25:08.148Z,4.8
2019-01-12T02:30:08.237Z,4.8
2019-01-12T02:35:15.894Z,4.8
2019-01-12T02:40:10.048Z,4.8
2019-01-12T02:45:07.454Z,4.8
2019-01-12T02:50:20.237Z,4.8
2019-01-12T02:55:17.722Z,4.7
2019-01-12T03:00:27.985Z,4.7
2019-01-12T03:05:02.978Z,4.7
2019-01-12T03:10:07.546Z,4.7
2019-01-12T03:15:05.038Z,4.8
2019-01-12T03:20:03.119Z,4.7
2019-01-12T03:25:17.491Z,4.8
2019-01-12T03:30:23.552Z,4.8
2019-01-12T03:35:02.538Z,4.7
2019-01-12T03:40:15.647Z,4.8
2019-01-12T03:45:20.772Z,4.8
2019-01-12T03:50:10.321Z,4.8
2019-01-12T03:55:02.759Z,4.8
2019-01-12T04:00:03.216Z,4.8
2019-01-12T04:05:03.192Z,4.8
2019-01-12T04:10:12.795Z,4.8
2019-01-12T04:15:15.461Z,4.8
2019-01-12T04:20:03.228Z,4.8
2019-01-12T04:25:03.280Z,4.8
2019-01-12T04:30:02.406Z,4.8
2019-01-12T04:35:12.528Z,4.8
2019-01-12T04:40:08.113Z,4.8
2019-01-12T04:45:10.716Z,4.8
2019-01-12T04:50:09.962Z,4.8
2019-01-12T04:55:05.001Z,4.9
2019-01-12T05:00:10.616Z,4.8
2019-01-12T05:05:08.199Z,4.8
2019-01-12T05:10:27.951Z,4.8
2019-01-12T05:15:03.011Z,4.8
2019-01-12T05:20:10.702Z,4.8
2019-01-12T05:25:03.127Z,4.8
2019-01-12T05:30:03.213Z,4.9
2019-01-12T05:35:08.274Z,4.8
2019-01-12T05:40:07.810Z,4.8
2019-01-12T05:45:05.307Z,4.9
2019-01-12T05:50:02.412Z,4.9
2019-01-12T05:55:17.613Z,4.9
2019-01-12T06:00:05.220Z,4.9
2019-01-12T06:05:02.738Z,4.9
2019-01-12T06:10:14.711Z,4.9
2019-01-12T06:15:08.283Z,4.9
2019-01-12T06:20:04.920Z,1.8
2019-01-12T06:25:04.916Z,5
2019-01-12T06:30:03.208Z,5
2019-01-12T06:35:08.339Z,5
2019-01-12T06:40:10.394Z,5
2019-01-12T06:45:02.849Z,5
2019-01-12T06:50:05.475Z,5
2019-01-12T06:55:02.959Z,5
2019-01-12T07:00:07.995Z,5
2019-01-12T07:05:02.939Z,5
2019-01-12T07:10:10.080Z,5.1
2019-01-12T07:15:15.100Z,5.1
2019-01-12T07:20:05.719Z,5.1
2019-01-12T07:25:10.733Z,5.1
2019-01-12T07:30:10.351Z,4.9
2019-01-12T07:35:07.845Z,4.9
2019-01-12T07:40:12.470Z,4.9
2019-01-12T07:45:20.161Z,4.9
2019-01-12T07:50:08.184Z,4.9
2019-01-12T07:55:03.153Z,5
2019-01-12T08:00:05.496Z,5
2019-01-12T08:05:06.853Z,5
2019-01-12T08:10:07.553Z,5.1
2019-01-12T08:15:35.529Z,5.1
2019-01-12T08:20:07.649Z,5.1
2019-01-12T08:25:05.147Z,5.2
2019-01-12T08:30:33.538Z,5.2
2019-01-12T08:35:07.585Z,5.1
2019-01-12T08:40:05.034Z,5.1
2019-01-12T08:45:05.020Z,5.2
2019-01-12T08:50:05.578Z,5.2
2019-01-12T08:55:03.108Z,5.2
2019-01-12T09:00:05.600Z,5.2
2019-01-12T09:05:03.100Z,5.3
2019-01-12T09:10:10.195Z,5.3
2019-01-12T09:15:05.323Z,5.4
2019-01-12T09:20:04.954Z,5.5
2019-01-12T09:25:04.920Z,5.6
2019-01-12T09:30:07.977Z,5.7
2019-01-12T09:35:13.092Z,5.7
2019-01-12T09:40:17.729Z,5.8
2019-01-12T09:45:27.845Z,5.8
2019-01-12T09:50:02.909Z,5.8
2019-01-12T09:55:20.647Z,5.9
2019-01-12T10:00:05.251Z,5.9
2019-01-12T10:05:07.901Z,5.9
2019-01-12T10:10:02.930Z,5.9
2019-01-12T10:15:10.585Z,6
2019-01-12T10:20:38.120Z,6
2019-01-12T10:25:10.734Z,6
2019-01-12T10:30:05.340Z,6.1
2019-01-12T10:35:05.298Z,6
2019-01-12T10:40:10.432Z,6
2019-01-12T10:50:02.774Z,6
2019-01-12T10:55:05.419Z,5.9
2019-01-12T11:00:17.672Z,5.9
2019-01-12T11:05:30.261Z,5.9
2019-01-12T11:10:04.172Z,5.9
2019-01-12T11:15:18.007Z,5.9
2019-01-12T11:20:08.206Z,6
2019-01-12T11:25:08.247Z,5.9
2019-01-12T11:30:08.351Z,5.9
2019-01-12T11:35:02.328Z,5.9
2019-01-12T11:40:02.847Z,5.8
2019-01-12T11:45:05.454Z,5.8
2019-01-12T11:50:05.264Z,5.8
2019-01-12T11:55:02.842Z,5.8
2019-01-12T12:00:10.442Z,5.9
2019-01-12T12:05:05.434Z,5.9
2019-01-12T12:10:15.570Z,6
2019-01-12T12:15:07.985Z,6
2019-01-12T12:20:15.790Z,6.1
2019-01-12T12:25:03.120Z,6
2019-01-12T12:30:10.768Z,6.1
2019-01-12T12:35:05.680Z,6.2
2019-01-12T12:40:15.853Z,6.2
2019-01-12T12:45:03.238Z,6.2
2019-01-12T12:50:03.218Z,6.3
2019-01-12T12:55:03.211Z,6.3
2019-01-12T13:00:05.799Z,6.2
2019-01-12T13:05:04.822Z,6.2
2019-01-12T13:10:20.037Z,6.2
2019-01-12T13:15:04.893Z,6.2
2019-01-12T13:20:03.019Z,6.2
2019-01-12T13:25:05.226Z,6.2
2019-01-12T13:30:13.334Z,6.1
2019-01-12T13:35:03.270Z,6
2019-01-12T13:40:02.765Z,6
2019-01-12T13:45:02.820Z,6
2019-01-12T13:50:20.554Z,5.9
2019-01-12T13:55:02.856Z,5.9
2019-01-12T14:00:05.405Z,5.7
2019-01-12T14:05:05.488Z,5.7
2019-01-12T14:10:03.019Z,5.7
2019-01-12T14:15:15.662Z,5.5
2019-01-12T14:20:04.878Z,5.5
2019-01-12T14:25:02.397Z,5.5
2019-01-12T14:30:02.462Z,5.4
2019-01-12T14:35:07.563Z,5.3
2019-01-12T14:40:05.702Z,5.3
2019-01-12T14:45:18.339Z,3.2
2019-01-12T14:50:02.406Z,5.2
2019-01-12T14:55:04.972Z,5.2
2019-01-12T15:00:08.151Z,5.1
2019-01-12T15:05:28.531Z,5.1
2019-01-12T15:10:10.653Z,5.1
2019-01-12T15:15:07.838Z,5.1
2019-01-12T15:20:05.417Z,5.1
2019-01-12T15:25:02.966Z,5.1
2019-01-12T15:30:10.600Z,5
2019-01-12T15:35:03.041Z,5
2019-01-12T15:40:12.660Z,5
2019-01-12T15:45:05.069Z,5.1
2019-01-12T15:55:15.813Z,5
2019-01-12T16:00:07.892Z,5.1
2019-01-12T16:05:23.120Z,5.1
2019-01-12T16:10:17.832Z,5.1
2019-01-12T16:15:10.235Z,5.1
2019-01-12T16:20:02.479Z,5.1
2019-01-12T16:25:07.516Z,5.1
2019-01-12T16:30:03.021Z,5
2019-01-12T16:35:05.578Z,5
2019-01-12T16:40:03.087Z,5
2019-01-12T16:45:25.985Z,5
2019-01-12T16:50:18.187Z,5
2019-01-12T16:55:10.625Z,5
2019-01-12T17:00:07.715Z,5
2019-01-12T17:05:05.237Z,5
2019-01-12T17:10:17.890Z,5
2019-01-12T17:15:05.187Z,5
2019-01-12T17:20:04.969Z,5
2019-01-12T17:25:05.799Z,5
2019-01-12T17:30:02.799Z,5
2019-01-12T17:35:05.313Z,5
2019-01-12T17:40:02.809Z,5
2019-01-12T17:45:07.896Z,5.1
2019-01-12T17:50:07.935Z,5.1
2019-01-12T17:55:07.924Z,5.1
2019-01-12T18:00:05.528Z,5.2
2019-01-12T18:05:10.605Z,5.2
2019-01-12T18:10:08.146Z,5.2
2019-01-12T18:15:38.502Z,5.2
2019-01-12T18:20:07.659Z,5.3
2019-01-12T18:25:16.778Z,5.4
2019-01-12T18:30:13.099Z,2.2
2019-01-12T18:35:02.997Z,5.4
2019-01-12T18:40:20.139Z,5.5
2019-01-12T18:45:07.483Z,5.5
2019-01-12T18:50:02.691Z,5.5
2019-01-12T18:55:07.704Z,5.6
2019-01-12T19:00:05.227Z,5.7
2019-01-12T19:05:02.741Z,5.8
2019-01-12T19:10:18.449Z,5.8
2019-01-12T19:15:05.754Z,5.8
2019-01-12T19:20:02.949Z,5.8
2019-01-12T19:25:03.055Z,5.8
2019-01-12T19:30:03.138Z,5.7
2019-01-12T19:35:08.225Z,5.7
2019-01-12T19:40:33.026Z,5.7
2019-01-12T19:45:03.028Z,5.7
2019-01-12T19:50:05.614Z,5.8
2019-01-12T19:55:10.726Z,5.8
2019-01-12T20:00:05.267Z,5.9
2019-01-12T20:05:05.308Z,5.9
2019-01-12T20:10:05.341Z,5.8
2019-01-12T20:15:18.005Z,5.9
2019-01-12T20:20:03.140Z,5.9
2019-01-12T20:25:03.142Z,5.9
2019-01-12T20:30:18.337Z,6
2019-01-12T20:35:18.335Z,6
2019-01-12T20:40:02.879Z,5.9
2019-01-12T20:45:25.613Z,5.9
2019-01-12T20:50:15.271Z,5.9
2019-01-12T20:55:20.446Z,5.9
2019-01-12T21:00:05.026Z,5.9
2019-01-12T21:10:28.235Z,5.9
2019-01-12T21:15:03.247Z,5.9
2019-01-12T21:20:07.775Z,5.9
2019-01-12T21:25:05.321Z,5.9
2019-01-12T21:30:04.872Z,5.8
2019-01-12T21:35:09.935Z,5.8
2019-01-12T21:40:20.186Z,5.8
2019-01-12T21:45:02.456Z,5.8
2019-01-12T21:50:02.488Z,5.8
2019-01-12T21:55:05.026Z,5.8
2019-01-12T22:00:03.123Z,5.8
2019-01-12T22:05:05.518Z,5.9
2019-01-12T22:15:35.893Z,5.9
2019-01-12T22:20:05.508Z,5.9
2019-01-12T22:25:25.783Z,5.9
2019-01-12T22:30:25.655Z,5.9
2019-01-12T22:35:25.424Z,5.9
2019-01-12T22:40:08.001Z,5.9
2019-01-12T22:45:38.410Z,6
2019-01-12T22:50:09.978Z,6
2019-01-12T22:55:05.027Z,6
2019-01-12T23:00:03.103Z,6
2019-01-12T23:05:10.621Z,6
2019-01-12T23:10:18.292Z,6
2019-01-12T23:15:03.087Z,6
2019-01-12T23:20:08.203Z,6
2019-01-12T23:25:08.244Z,6
2019-01-12T23:30:04.481Z,6
2019-01-12T23:35:07.438Z,6
2019-01-12T23:40:07.988Z,6.1
2019-01-12T23:45:02.947Z,6
2019-01-12T23:50:05.556Z,6.1
2019-01-12T23:55:03.032Z,6.1
